createdAt,value
2022-11-28T00:01:50.021Z,10.10
2022-11-28T00:05:12.347Z,8.10
2022-11-28T00:09:08.778Z,6.90
2022-11-28T00:12:49.440Z,6.60
2022-11-28T00:16:16.339Z,6.80
2022-11-28T00:19:48.718Z,5.60
2022-11-28T00:23:47.249Z,6.70
2022-11-28T00:27:09.036Z,9.20
2022-11-28T00:30:46.484Z,18.60
2022-11-28T00:34:44.076Z,10.10
2022-11-28T00:38:06.064Z,11.50
2022-11-28T00:41:44.897Z,10.60
2022-11-28T00:45:40.548Z,8.10
2022-11-28T00:49:02.649Z,7.60
2022-11-28T00:52:40.332Z,6.50
2022-11-28T00:56:21.627Z,7.70
2022-11-28T01:00:15.157Z,6.60
2022-11-28T01:03:37.437Z,10.00
2022-11-28T01:07:14.352Z,6.00
2022-11-28T01:10:51.890Z,6.90
2022-11-28T01:14:30.538Z,7.30
2022-11-28T01:18:26.650Z,11.40
2022-11-28T01:22:07.146Z,12.80
2022-11-28T01:25:47.572Z,9.90
2022-11-28T01:29:28.161Z,10.30
2022-11-28T01:32:49.603Z,10.70
2022-11-28T01:36:27.346Z,8.50
2022-11-28T01:40:23.780Z,8.20
2022-11-28T01:44:12.883Z,8.80
2022-11-28T01:47:36.062Z,7.60
2022-11-28T01:51:13.834Z,6.40
2022-11-28T01:54:54.943Z,5.60
2022-11-28T01:58:51.434Z,7.10
2022-11-28T02:02:38.023Z,9.00
2022-11-28T02:06:00.287Z,5.50
2022-11-28T02:09:37.736Z,6.10
2022-11-28T02:13:48.275Z,6.20
2022-11-28T02:17:22.596Z,6.20
2022-11-28T02:21:26.613Z,9.60
2022-11-28T02:25:08.764Z,7.40
2022-11-28T02:29:11.913Z,9.20
2022-11-28T02:32:42.992Z,7.20
2022-11-28T02:36:35.796Z,9.00
2022-11-28T02:40:31.508Z,6.00
2022-11-28T02:44:28.133Z,6.70
2022-11-28T02:48:02.771Z,5.70
2022-11-28T02:51:49.556Z,6.10
2022-11-28T02:55:14.686Z,11.50
2022-11-28T02:58:50.106Z,6.50
2022-11-28T03:02:55.221Z,6.20
2022-11-28T03:06:48.548Z,8.10
2022-11-28T03:10:20.243Z,7.30
2022-11-28T03:14:35.569Z,11.00
2022-11-28T03:18:33.495Z,10.00
2022-11-28T03:22:07.372Z,7.70
2022-11-28T03:26:15.403Z,6.60
2022-11-28T03:29:46.533Z,7.30
2022-11-28T03:33:37.391Z,8.30
2022-11-28T03:37:23.281Z,7.90
2022-11-28T03:41:14.124Z,6.30
2022-11-28T03:44:44.107Z,7.80
2022-11-28T03:48:21.505Z,7.30
2022-11-28T03:52:12.339Z,7.00
2022-11-28T03:55:45.426Z,7.40
2022-11-28T03:59:22.756Z,6.50
2022-11-28T04:03:18.561Z,7.10
2022-11-28T04:07:18.850Z,6.30
2022-11-28T04:10:52.421Z,6.70
2022-11-28T04:14:22.018Z,7.40
2022-11-28T04:18:02.644Z,8.00
2022-11-28T04:22:04.831Z,6.40
2022-11-28T04:25:30.316Z,5.80
2022-11-28T04:29:25.176Z,8.70
2022-11-28T04:32:51.768Z,8.50
2022-11-28T04:36:44.825Z,9.90
2022-11-28T04:40:29.714Z,7.90
2022-11-28T04:43:59.781Z,7.80
2022-11-28T04:47:48.474Z,6.80
2022-11-28T04:51:17.843Z,9.60
2022-11-28T04:55:02.396Z,16.50
2022-11-28T04:58:32.926Z,16.30
2022-11-28T05:02:24.758Z,14.30
2022-11-28T05:05:51.354Z,10.40
2022-11-28T05:09:43.027Z,8.40
2022-11-28T05:13:23.629Z,8.90
2022-11-28T05:16:45.636Z,11.50
2022-11-28T05:20:42.710Z,10.90
2022-11-28T05:24:04.869Z,11.00
2022-11-28T05:28:01.257Z,13.50
2022-11-28T05:31:42.165Z,12.60
2022-11-28T05:35:05.086Z,13.60
2022-11-28T05:39:00.966Z,9.90
2022-11-28T05:42:22.760Z,11.70
2022-11-28T05:46:00.464Z,20.10
2022-11-28T05:49:56.933Z,10.10
2022-11-28T05:53:37.557Z,15.10
2022-11-28T05:56:58.960Z,11.30
2022-11-28T06:00:37.501Z,23.40
2022-11-28T06:04:14.533Z,13.80
2022-11-28T06:08:12.048Z,11.90
2022-11-28T06:11:34.854Z,14.10
2022-11-28T06:15:11.470Z,13.50
2022-11-28T06:19:12.240Z,12.40
2022-11-28T06:22:34.947Z,11.30
2022-11-28T06:26:14.829Z,14.70
2022-11-28T06:30:08.895Z,12.20
2022-11-28T06:33:30.823Z,11.00
2022-11-28T06:37:08.544Z,11.40
2022-11-28T06:40:46.227Z,17.40
2022-11-28T06:44:24.142Z,14.70
2022-11-28T06:48:21.390Z,13.50
2022-11-28T06:51:43.177Z,16.30
2022-11-28T06:55:39.410Z,12.00
2022-11-28T06:59:01.416Z,15.90
2022-11-28T07:02:39.112Z,26.00
2022-11-28T07:06:18.514Z,20.80
2022-11-28T07:09:54.107Z,12.50
2022-11-28T07:13:31.884Z,10.60
2022-11-28T07:17:28.490Z,13.40
2022-11-28T07:21:09.952Z,15.40
2022-11-28T07:24:31.721Z,12.10
2022-11-28T07:28:30.610Z,11.50
2022-11-28T07:32:11.570Z,13.90
2022-11-28T07:35:34.720Z,14.10
2022-11-28T07:39:30.282Z,11.60
2022-11-28T07:43:11.395Z,13.10
2022-11-28T07:46:34.120Z,14.00
2022-11-28T07:50:29.903Z,19.20
2022-11-28T07:54:10.598Z,16.40
2022-11-28T07:57:32.234Z,14.50
2022-11-28T08:01:19.251Z,15.30
2022-11-28T08:04:50.622Z,13.90
2022-11-28T08:08:46.341Z,13.30
2022-11-28T08:12:26.864Z,16.00
2022-11-28T08:15:48.343Z,14.40
2022-11-28T08:19:44.982Z,13.20
2022-11-28T08:23:06.804Z,13.90
2022-11-28T08:26:44.545Z,12.50
2022-11-28T08:30:41.085Z,12.50
2022-11-28T08:34:06.109Z,11.20
2022-11-28T08:38:02.052Z,11.40
2022-11-28T08:41:24.387Z,10.80
2022-11-28T08:45:20.479Z,10.80
2022-11-28T08:49:01.368Z,11.80
2022-11-28T08:52:44.080Z,11.10
2022-11-28T08:56:05.804Z,11.10
2022-11-28T08:59:43.496Z,12.10
2022-11-28T09:03:39.907Z,13.00
2022-11-28T09:07:20.441Z,12.40
2022-11-28T09:10:44.234Z,13.30
2022-11-28T09:14:38.807Z,14.50
2022-11-28T09:18:19.207Z,12.80
2022-11-28T09:21:59.634Z,16.70
2022-11-28T09:25:21.200Z,11.30
2022-11-28T09:28:59.376Z,12.60
2022-11-28T09:32:36.712Z,13.00
2022-11-28T09:36:33.186Z,13.60
2022-11-28T09:40:12.701Z,11.40
2022-11-28T09:43:42.357Z,13.40
2022-11-28T09:47:36.397Z,14.10
2022-11-28T09:51:03.111Z,14.40
2022-11-28T09:55:01.363Z,14.00
2022-11-28T09:58:34.995Z,12.90
2022-11-28T10:02:38.146Z,19.20
2022-11-28T10:06:26.054Z,14.80
2022-11-28T10:10:27.509Z,19.90
2022-11-28T10:14:29.121Z,16.40
2022-11-28T10:18:24.590Z,24.20
2022-11-28T10:22:12.837Z,12.70
2022-11-28T10:25:51.185Z,12.80
2022-11-28T10:29:43.659Z,10.90
2022-11-28T10:33:26.868Z,12.30
2022-11-28T10:36:49.047Z,10.10
2022-11-28T10:41:13.357Z,10.40
2022-11-28T10:45:03.804Z,10.50
2022-11-28T10:48:40.419Z,10.30
2022-11-28T10:52:21.212Z,10.50
2022-11-28T10:56:13.367Z,12.10
2022-11-28T11:00:11.519Z,11.80
2022-11-28T11:03:36.086Z,12.40
2022-11-28T11:07:16.212Z,12.40
2022-11-28T11:10:51.228Z,9.90
2022-11-28T11:14:45.671Z,13.60
2022-11-28T11:18:26.316Z,17.10
2022-11-28T11:22:03.728Z,9.70
2022-11-28T11:39:23.037Z,11.40
2022-11-28T11:43:03.449Z,11.60
2022-11-28T11:46:26.106Z,11.70
2022-11-28T11:50:25.504Z,12.80
2022-11-28T11:53:47.375Z,9.90
2022-11-28T11:57:51.883Z,9.00
2022-11-28T12:01:18.069Z,8.40
2022-11-28T12:05:16.234Z,10.20
2022-11-28T12:08:51.399Z,10.00
2022-11-28T12:12:25.177Z,10.70
2022-11-28T12:16:36.997Z,9.80
2022-11-28T12:20:26.677Z,9.10
2022-11-28T12:23:56.019Z,10.30
2022-11-28T12:27:41.543Z,8.60
2022-11-28T12:31:23.008Z,9.10
2022-11-28T12:35:26.832Z,9.70
2022-11-28T12:39:14.332Z,11.00
2022-11-28T12:43:02.225Z,13.20
2022-11-28T12:46:49.669Z,10.30
2022-11-28T12:50:38.947Z,16.30
2022-11-28T12:54:12.253Z,16.10
2022-11-28T12:58:34.812Z,8.90
2022-11-28T13:02:53.604Z,15.10
2022-11-28T13:06:49.205Z,17.30
2022-11-28T13:10:50.944Z,14.50
2022-11-28T13:14:40.889Z,9.30
2022-11-28T13:18:34.660Z,12.00
2022-11-28T13:22:00.349Z,12.00
2022-11-28T13:25:48.671Z,10.00
2022-11-28T13:29:43.376Z,14.70
2022-11-28T13:33:27.227Z,13.50
2022-11-28T13:40:48.014Z,18.00
2022-11-28T13:44:45.436Z,22.60
2022-11-28T13:52:44.966Z,11.20
2022-11-28T13:56:06.582Z,13.40
2022-11-28T14:00:04.114Z,11.50
2022-11-28T14:04:02.086Z,10.70
2022-11-28T14:07:31.665Z,8.80
2022-11-28T14:11:54.452Z,11.40
2022-11-28T14:15:55.364Z,11.10
2022-11-28T14:19:26.335Z,15.50
2022-11-28T14:23:31.239Z,14.70
2022-11-28T14:27:05.676Z,12.70
2022-11-28T14:30:36.954Z,12.60
2022-11-28T14:34:37.132Z,11.00
2022-11-28T14:37:59.599Z,10.60
2022-11-28T14:42:36.876Z,14.00
2022-11-28T14:46:19.450Z,13.90
2022-11-28T14:50:04.455Z,14.20
2022-11-28T14:53:48.088Z,12.70
2022-11-28T14:57:54.614Z,13.40
2022-11-28T15:01:30.712Z,13.50
2022-11-28T15:05:47.286Z,10.90
2022-11-28T15:09:25.627Z,14.30
2022-11-28T15:13:25.915Z,11.80
2022-11-28T15:17:12.447Z,18.00
2022-11-28T15:21:00.454Z,17.20
2022-11-28T15:24:24.999Z,15.20
2022-11-28T15:28:23.167Z,14.50
2022-11-28T15:31:50.872Z,13.40
2022-11-28T15:35:23.917Z,16.10
2022-11-28T15:39:00.943Z,17.00
2022-11-28T15:42:58.386Z,16.60
2022-11-28T15:46:32.847Z,18.50
2022-11-28T15:50:19.970Z,13.00
2022-11-28T15:54:22.703Z,13.90
2022-11-28T15:57:44.491Z,11.10
2022-11-28T16:01:24.312Z,12.80
2022-11-28T16:05:21.225Z,18.70
2022-11-28T16:08:48.194Z,16.40
2022-11-28T16:12:21.193Z,29.50
2022-11-28T16:16:01.685Z,16.60
2022-11-28T16:19:56.394Z,18.20
2022-11-28T16:23:30.139Z,15.20
2022-11-28T16:27:36.815Z,15.00
2022-11-28T16:30:59.003Z,14.20
2022-11-28T16:34:52.212Z,14.50
2022-11-28T16:38:21.008Z,10.50
2022-11-28T16:42:06.430Z,13.00
2022-11-28T16:45:36.532Z,14.00
2022-11-28T16:49:33.091Z,12.70
2022-11-28T16:53:43.685Z,13.40
2022-11-28T16:57:17.355Z,14.90
2022-11-28T17:01:08.204Z,14.70
2022-11-28T17:04:51.123Z,14.10
2022-11-28T17:08:31.508Z,13.00
2022-11-28T17:11:58.342Z,12.10
2022-11-28T17:15:49.604Z,12.90
2022-11-28T17:19:30.194Z,14.70
2022-11-28T17:22:54.168Z,13.60
2022-11-28T17:26:29.801Z,13.30
2022-11-28T17:30:25.890Z,14.70
2022-11-28T17:34:14.174Z,13.90
2022-11-28T17:37:36.190Z,13.20
2022-11-28T17:41:14.691Z,11.50
2022-11-28T17:44:51.325Z,12.80
2022-11-28T17:48:30.421Z,12.40
2022-11-28T17:52:31.595Z,12.00
2022-11-28T17:55:58.628Z,12.30
2022-11-28T17:59:30.591Z,12.20
2022-11-28T18:03:28.810Z,12.10
2022-11-28T18:07:08.848Z,12.60
2022-11-28T18:10:49.368Z,16.30
2022-11-28T18:14:11.876Z,13.60
2022-11-28T18:17:49.474Z,10.80
2022-11-28T18:21:27.196Z,10.20
2022-11-28T18:25:05.764Z,13.30
2022-11-28T18:29:01.409Z,11.60
2022-11-28T18:32:22.947Z,13.10
2022-11-28T18:36:25.364Z,15.00
2022-11-28T18:39:47.811Z,13.90
2022-11-28T18:43:43.837Z,14.90
2022-11-28T18:47:05.824Z,13.10
2022-11-28T18:50:43.341Z,12.30
2022-11-28T18:54:40.945Z,12.30
2022-11-28T18:58:02.835Z,13.60
2022-11-28T19:01:40.764Z,14.30
2022-11-28T19:05:41.199Z,11.70
2022-11-28T19:09:06.428Z,13.00
2022-11-28T19:12:41.328Z,11.20
2022-11-28T19:16:24.951Z,14.30
2022-11-28T19:19:56.153Z,12.10
2022-11-28T19:23:54.525Z,13.30
2022-11-28T19:27:16.482Z,11.80
2022-11-28T19:31:16.287Z,11.90
2022-11-28T19:34:38.004Z,13.60
2022-11-28T19:38:36.313Z,15.30
2022-11-28T19:42:17.159Z,14.30
2022-11-28T19:45:39.070Z,15.10
2022-11-28T19:49:35.483Z,13.70
2022-11-28T19:53:17.334Z,14.20
2022-11-28T19:56:39.681Z,13.90
2022-11-28T20:00:19.133Z,12.60
2022-11-28T20:03:54.906Z,13.70
2022-11-28T20:07:32.749Z,13.50
2022-11-28T20:11:13.711Z,14.10
2022-11-28T20:14:48.035Z,14.00
2022-11-28T20:18:26.407Z,17.40
2022-11-28T20:22:03.481Z,13.50
2022-11-28T20:25:40.943Z,14.70
2022-11-28T20:29:19.832Z,15.30
2022-11-28T20:33:15.282Z,13.00
2022-11-28T20:36:37.646Z,14.90
2022-11-28T20:40:14.527Z,13.50
2022-11-28T20:43:53.000Z,13.30
2022-11-28T20:47:50.103Z,15.70
2022-11-28T20:51:33.440Z,12.20
2022-11-28T20:54:57.649Z,12.70
2022-11-28T20:58:33.540Z,13.70
2022-11-28T21:02:28.699Z,13.20
2022-11-28T21:05:50.653Z,16.20
2022-11-28T21:09:27.666Z,12.70
2022-11-28T21:13:05.600Z,16.10
2022-11-28T21:16:43.772Z,12.50
2022-11-28T21:20:43.244Z,14.20
2022-11-28T21:24:13.692Z,15.20
2022-11-28T21:28:01.810Z,15.80
2022-11-28T21:31:26.670Z,15.00
2022-11-28T21:35:04.503Z,12.20
2022-11-28T21:38:38.968Z,14.90
2022-11-28T21:42:20.485Z,14.80
2022-11-28T21:45:54.394Z,12.60
2022-11-28T21:49:32.057Z,14.80
2022-11-28T21:53:09.713Z,13.90
2022-11-28T21:56:47.351Z,14.80
2022-11-28T22:00:53.532Z,16.00
2022-11-28T22:04:38.936Z,15.20
2022-11-28T22:08:01.251Z,13.20
2022-11-28T22:11:39.303Z,14.70
2022-11-28T22:15:16.048Z,15.00
2022-11-28T22:18:56.356Z,14.50
2022-11-28T22:22:50.344Z,19.90
2022-11-28T22:26:12.887Z,20.80
2022-11-28T22:29:50.129Z,17.40
2022-11-28T22:33:48.527Z,19.30
2022-11-28T22:37:10.233Z,18.80
2022-11-28T22:40:48.026Z,17.30
2022-11-28T22:44:44.401Z,15.50
2022-11-28T22:48:25.268Z,16.00
2022-11-28T22:51:47.015Z,13.80
2022-11-28T22:55:24.915Z,14.90
2022-11-28T22:59:05.108Z,19.10
2022-11-28T23:02:59.245Z,17.40
2022-11-28T23:06:31.090Z,16.50
2022-11-28T23:10:05.949Z,15.90
2022-11-28T23:13:44.150Z,16.70
2022-11-28T23:17:20.599Z,16.60
2022-11-28T23:20:57.947Z,17.70
2022-11-28T23:24:54.748Z,16.10
2022-11-28T23:28:36.131Z,16.40
2022-11-28T23:31:57.995Z,14.90
2022-11-28T23:35:35.478Z,16.70
2022-11-28T23:39:16.316Z,15.90
2022-11-28T23:43:09.706Z,16.20
2022-11-28T23:46:31.522Z,13.30
2022-11-28T23:50:09.284Z,13.70
2022-11-28T23:53:47.881Z,12.30
2022-11-28T23:57:43.941Z,16.60
